createdAt,value
2023-11-15T00:01:27.849Z,15.25
2023-11-15T00:04:20.376Z,12.80
2023-11-15T00:07:07.625Z,13.25
2023-11-15T00:09:55.061Z,11.88
2023-11-15T00:12:42.080Z,16.63
2023-11-15T00:15:32.029Z,13.43
2023-11-15T00:18:19.273Z,13.07
2023-11-15T00:21:08.082Z,10.88
2023-11-15T00:23:54.515Z,12.95
2023-11-15T00:26:41.539Z,11.68
2023-11-15T00:29:30.986Z,10.77
2023-11-15T00:32:20.369Z,11.55
2023-11-15T00:35:10.203Z,13.65
2023-11-15T00:38:00.676Z,11.18
2023-11-15T00:40:47.505Z,11.05
2023-11-15T00:43:37.233Z,10.40
2023-11-15T00:46:26.313Z,11.13
2023-11-15T00:49:13.603Z,8.83
2023-11-15T00:52:06.248Z,8.32
2023-11-15T00:54:54.691Z,9.35
2023-11-15T00:57:41.509Z,11.23
2023-11-15T01:00:28.603Z,8.75
2023-11-15T01:03:27.041Z,9.65
2023-11-15T01:06:15.385Z,10.05
2023-11-15T01:09:08.459Z,9.73
2023-11-15T01:11:56.738Z,8.13
2023-11-15T01:14:43.970Z,8.47
2023-11-15T01:17:34.939Z,12.40
2023-11-15T01:20:26.126Z,9.30
2023-11-15T01:23:13.199Z,9.15
2023-11-15T01:25:59.665Z,8.07
2023-11-15T01:28:50.027Z,6.63
2023-11-15T01:31:38.379Z,10.48
2023-11-15T01:34:27.894Z,7.63
2023-11-15T01:37:16.285Z,8.98
2023-11-15T01:40:07.770Z,8.63
2023-11-15T01:42:54.654Z,7.73
2023-11-15T01:45:42.635Z,10.70
2023-11-15T01:48:29.645Z,7.03
2023-11-15T01:51:18.947Z,7.90
2023-11-15T01:54:07.102Z,6.70
2023-11-15T01:56:54.125Z,8.98
2023-11-15T01:59:42.785Z,8.82
2023-11-15T02:02:31.717Z,8.75
2023-11-15T02:05:18.727Z,8.40
2023-11-15T02:08:05.810Z,4.75
2023-11-15T02:10:53.137Z,6.22
2023-11-15T02:13:40.554Z,3.97
2023-11-15T02:16:29.558Z,7.15
2023-11-15T02:19:18.440Z,4.60
2023-11-15T02:22:05.551Z,4.07
2023-11-15T02:24:53.911Z,7.50
2023-11-15T02:27:41.431Z,11.75
2023-11-15T02:30:28.541Z,10.20
2023-11-15T02:33:17.613Z,10.52
2023-11-15T02:36:04.826Z,15.02
2023-11-15T02:39:00.820Z,14.68
2023-11-15T02:41:52.100Z,16.40
2023-11-15T02:44:39.518Z,15.93
2023-11-15T02:47:29.848Z,18.58
2023-11-15T02:50:16.482Z,13.10
2023-11-15T02:53:02.978Z,17.88
2023-11-15T02:55:49.586Z,20.45
2023-11-15T02:58:45.270Z,17.08
2023-11-15T03:01:31.783Z,19.77
2023-11-15T03:04:18.244Z,16.05
2023-11-15T03:07:05.217Z,20.13
2023-11-15T03:09:59.381Z,21.08
2023-11-15T03:12:46.995Z,19.20
2023-11-15T03:15:51.559Z,16.73
2023-11-15T03:18:38.578Z,21.60
2023-11-15T03:21:26.389Z,20.27
2023-11-15T03:24:13.209Z,19.17
2023-11-15T03:27:02.116Z,18.40
2023-11-15T03:29:50.981Z,20.25
2023-11-15T03:32:39.556Z,18.20
2023-11-15T03:35:27.890Z,21.40
2023-11-15T03:38:20.727Z,17.20
2023-11-15T03:41:10.757Z,15.30
2023-11-15T03:43:57.681Z,6.30
2023-11-15T03:46:44.236Z,3.97
2023-11-15T03:49:31.949Z,4.97
2023-11-15T03:52:21.339Z,3.78
2023-11-15T03:55:14.061Z,2.83
2023-11-15T03:58:00.544Z,3.22
2023-11-15T04:00:49.319Z,2.67
2023-11-15T04:03:36.289Z,3.30
2023-11-15T04:06:24.555Z,2.40
2023-11-15T04:09:11.906Z,4.40
2023-11-15T04:12:01.289Z,3.15
2023-11-15T04:14:47.842Z,3.83
2023-11-15T04:17:37.181Z,4.80
2023-11-15T04:20:23.757Z,3.80
2023-11-15T04:23:14.121Z,3.08
2023-11-15T04:26:03.380Z,4.65
2023-11-15T04:28:53.049Z,5.37
2023-11-15T04:31:39.698Z,14.13
2023-11-15T04:34:28.630Z,18.83
2023-11-15T04:37:17.200Z,13.15
2023-11-15T04:40:07.912Z,19.77
2023-11-15T04:42:54.297Z,16.23
2023-11-15T04:45:40.726Z,15.25
2023-11-15T04:48:27.502Z,19.30
2023-11-15T04:51:14.528Z,17.80
2023-11-15T04:54:03.942Z,20.00
2023-11-15T04:59:39.515Z,18.15
2023-11-15T05:02:28.286Z,19.77
2023-11-15T05:05:18.134Z,21.15
2023-11-15T05:08:05.089Z,20.77
2023-11-15T05:10:54.379Z,18.83
2023-11-15T05:13:42.325Z,14.25
2023-11-15T05:16:29.565Z,19.00
2023-11-15T05:19:18.698Z,16.80
2023-11-15T05:22:10.540Z,20.67
2023-11-15T05:24:57.086Z,19.83
2023-11-15T05:27:43.834Z,19.20
2023-11-15T05:30:32.020Z,20.17
2023-11-15T05:33:18.627Z,23.25
2023-11-15T05:36:08.568Z,22.97
2023-11-15T05:38:55.510Z,20.50
2023-11-15T05:44:42.483Z,21.17
2023-11-15T05:47:32.452Z,23.77
2023-11-15T05:50:20.327Z,22.33
2023-11-15T05:53:07.693Z,22.02
2023-11-15T05:55:54.252Z,21.02
2023-11-15T05:58:42.428Z,18.38
2023-11-15T06:01:31.168Z,17.85
2023-11-15T06:04:19.777Z,15.93
2023-11-15T06:07:07.358Z,16.75
2023-11-15T06:09:56.556Z,20.65
2023-11-15T06:12:43.241Z,23.88
2023-11-15T06:15:29.702Z,20.85
2023-11-15T06:18:16.205Z,18.83
2023-11-15T06:21:07.890Z,21.33
2023-11-15T06:23:57.972Z,21.30
2023-11-15T06:26:45.574Z,21.02
2023-11-15T06:29:33.365Z,18.77
2023-11-15T06:32:19.573Z,19.75
2023-11-15T06:35:06.520Z,18.90
2023-11-15T06:37:55.479Z,23.13
2023-11-15T06:40:42.985Z,20.17
2023-11-15T06:43:29.614Z,15.93
2023-11-15T06:46:19.698Z,17.35
2023-11-15T06:49:07.905Z,14.98
2023-11-15T06:51:54.686Z,16.20
2023-11-15T06:54:49.785Z,16.67
2023-11-15T06:57:37.792Z,13.45
2023-11-15T07:00:27.497Z,20.75
2023-11-15T07:03:14.400Z,17.17
2023-11-15T07:06:03.677Z,12.03
2023-11-15T07:08:59.776Z,16.10
2023-11-15T07:11:48.833Z,17.05
2023-11-15T07:14:40.005Z,16.95
2023-11-15T07:17:29.026Z,13.60
2023-11-15T07:20:18.462Z,10.93
2023-11-15T07:23:07.644Z,14.88
2023-11-15T07:25:55.139Z,12.88
2023-11-15T07:28:45.956Z,14.25
2023-11-15T07:31:33.675Z,11.48
2023-11-15T07:34:21.977Z,14.13
2023-11-15T07:37:13.398Z,11.25
2023-11-15T07:40:04.029Z,12.00
2023-11-15T07:42:35.502Z,12.35
2023-11-15T07:45:09.089Z,10.32
2023-11-15T07:47:40.780Z,15.63
2023-11-15T07:50:12.084Z,13.88
2023-11-15T07:52:41.017Z,11.07
2023-11-15T07:55:11.748Z,9.93
2023-11-15T07:57:42.880Z,13.40
2023-11-15T08:00:23.660Z,11.45
2023-11-15T08:02:56.294Z,15.73
2023-11-15T08:05:27.661Z,13.10
2023-11-15T08:07:58.075Z,12.27
2023-11-15T08:10:26.258Z,11.57
2023-11-15T08:12:54.348Z,13.77
2023-11-15T08:15:29.182Z,14.38
2023-11-15T08:17:59.716Z,12.50
2023-11-15T08:20:29.954Z,13.98
2023-11-15T08:22:58.469Z,14.40
2023-11-15T08:25:26.608Z,16.58
2023-11-15T08:27:54.838Z,19.45
2023-11-15T08:30:42.864Z,15.52
2023-11-15T08:33:37.271Z,20.38
2023-11-15T08:36:23.997Z,16.58
2023-11-15T08:39:16.611Z,16.65
2023-11-15T08:42:05.731Z,17.85
2023-11-15T08:44:54.628Z,11.80
2023-11-15T08:47:42.695Z,17.92
2023-11-15T08:50:30.188Z,19.10
2023-11-15T08:52:58.839Z,19.17
2023-11-15T08:55:29.877Z,10.88
2023-11-15T08:57:58.600Z,14.52
2023-11-15T09:00:26.750Z,17.95
2023-11-15T09:02:58.692Z,13.25
2023-11-15T09:05:37.309Z,15.70
2023-11-15T09:08:05.694Z,12.35
2023-11-15T09:10:38.424Z,21.02
2023-11-15T09:13:09.407Z,13.65
2023-11-15T09:15:37.811Z,18.27
2023-11-15T09:18:14.300Z,14.07
2023-11-15T09:20:42.780Z,12.95
2023-11-15T09:23:22.044Z,20.05
2023-11-15T09:26:00.437Z,12.80
2023-11-15T09:28:29.312Z,13.52
2023-11-15T09:30:57.540Z,13.38
2023-11-15T09:33:30.896Z,16.67
2023-11-15T09:36:01.615Z,11.45
2023-11-15T09:38:50.900Z,15.07
2023-11-15T09:41:37.638Z,14.88
2023-11-15T09:44:25.486Z,14.85
2023-11-15T09:47:16.081Z,15.90
2023-11-15T09:50:05.335Z,17.20
2023-11-15T09:52:54.074Z,18.85
2023-11-15T09:55:43.127Z,13.32
2023-11-15T09:58:31.377Z,15.30
2023-11-15T10:01:18.427Z,15.40
2023-11-15T10:04:05.943Z,14.40
2023-11-15T10:07:05.377Z,14.35
2023-11-15T10:09:54.558Z,12.73
2023-11-15T10:12:41.618Z,13.93
2023-11-15T10:15:35.174Z,5.72
2023-11-15T10:18:33.361Z,4.95
2023-11-15T10:21:21.604Z,10.70
2023-11-15T10:24:18.351Z,7.05
2023-11-15T10:27:16.152Z,6.80
2023-11-15T10:30:09.454Z,9.70
2023-11-15T10:33:14.011Z,12.85
2023-11-15T10:36:17.623Z,9.20
2023-11-15T10:39:08.472Z,12.55
2023-11-15T10:41:56.980Z,15.20
2023-11-15T10:44:47.509Z,13.03
2023-11-15T10:47:39.082Z,17.35
2023-11-15T10:50:32.741Z,14.00
2023-11-15T10:53:21.612Z,14.60
2023-11-15T10:56:10.714Z,14.02
2023-11-15T10:59:02.263Z,14.30
2023-11-15T11:01:55.879Z,15.25
2023-11-15T11:04:44.750Z,13.73
2023-11-15T11:07:41.359Z,14.57
2023-11-15T11:10:41.556Z,13.60
2023-11-15T11:13:28.847Z,12.60
2023-11-15T11:16:36.139Z,11.40
2023-11-15T11:19:24.115Z,13.53
2023-11-15T11:22:13.132Z,15.00
2023-11-15T11:25:24.888Z,16.80
2023-11-15T11:28:13.356Z,20.00
2023-11-15T11:31:16.313Z,13.43
2023-11-15T11:34:22.569Z,15.23
2023-11-15T11:37:09.227Z,14.98
2023-11-15T11:39:58.584Z,12.05
2023-11-15T11:42:49.328Z,16.77
2023-11-15T11:45:35.907Z,14.37
2023-11-15T11:48:24.497Z,14.60
2023-11-15T11:51:22.039Z,17.17
2023-11-15T11:54:24.943Z,15.00
2023-11-15T11:57:20.222Z,11.18
2023-11-15T12:00:22.273Z,13.60
2023-11-15T12:03:18.773Z,12.25
2023-11-15T12:06:10.373Z,13.40
2023-11-15T12:09:01.075Z,13.55
2023-11-15T12:11:48.400Z,12.40
2023-11-15T12:15:08.070Z,13.88
2023-11-15T12:17:58.856Z,11.20
2023-11-15T12:20:48.070Z,14.60
2023-11-15T12:23:37.041Z,11.43
2023-11-15T12:26:26.165Z,11.80
2023-11-15T12:29:23.966Z,10.73
2023-11-15T12:32:10.625Z,12.70
2023-11-15T12:34:57.660Z,17.15
2023-11-15T12:37:44.231Z,11.95
2023-11-15T12:40:33.114Z,14.88
2023-11-15T12:43:25.226Z,14.38
2023-11-15T12:46:18.248Z,9.55
2023-11-15T12:49:15.650Z,12.00
2023-11-15T12:52:02.137Z,13.23
2023-11-15T12:54:55.502Z,12.10
2023-11-15T12:57:54.959Z,13.02
2023-11-15T13:01:05.469Z,16.25
2023-11-15T13:03:58.119Z,11.80
2023-11-15T13:06:45.400Z,9.63
2023-11-15T13:09:33.999Z,14.23
2023-11-15T13:12:29.440Z,16.23
2023-11-15T13:15:19.109Z,12.77
2023-11-15T13:18:09.861Z,10.88
2023-11-15T13:21:05.804Z,11.48
2023-11-15T13:23:55.465Z,10.10
2023-11-15T13:26:44.134Z,10.50
2023-11-15T13:29:30.401Z,9.50
2023-11-15T13:32:19.093Z,8.55
2023-11-15T13:35:09.255Z,10.82
2023-11-15T13:37:57.486Z,11.00
2023-11-15T13:40:45.841Z,7.67
2023-11-15T13:43:32.843Z,11.55
2023-11-15T13:46:25.602Z,7.38
2023-11-15T13:49:14.156Z,11.03
2023-11-15T13:52:02.114Z,7.28
2023-11-15T13:54:48.587Z,8.35
2023-11-15T13:57:36.655Z,12.90
2023-11-15T14:00:29.071Z,9.43
2023-11-15T14:03:16.693Z,10.25
2023-11-15T14:06:06.454Z,8.13
2023-11-15T14:08:59.048Z,10.83
2023-11-15T14:11:49.045Z,9.65
2023-11-15T14:14:36.623Z,8.77
2023-11-15T14:17:24.465Z,8.07
2023-11-15T14:20:15.191Z,7.57
2023-11-15T14:23:01.920Z,8.48
2023-11-15T14:25:50.089Z,8.85
2023-11-15T14:28:36.719Z,10.93
2023-11-15T14:31:24.431Z,14.35
2023-11-15T14:34:11.196Z,7.82
2023-11-15T14:36:58.230Z,17.30
2023-11-15T14:40:00.966Z,10.02
2023-11-15T14:42:49.522Z,7.03
2023-11-15T14:45:36.022Z,9.05
2023-11-15T14:48:24.953Z,8.80
2023-11-15T14:51:13.358Z,6.23
2023-11-15T14:54:01.570Z,8.20
2023-11-15T14:56:50.205Z,10.27
2023-11-15T14:59:42.758Z,7.28
2023-11-15T15:02:31.794Z,6.35
2023-11-15T15:05:19.208Z,8.73
2023-11-15T15:08:09.079Z,11.60
2023-11-15T15:10:56.492Z,8.43
2023-11-15T15:13:43.577Z,8.05
2023-11-15T15:16:34.507Z,9.70
2023-11-15T15:19:23.738Z,8.40
2023-11-15T15:22:10.428Z,8.35
2023-11-15T15:24:57.267Z,10.45
2023-11-15T15:27:44.186Z,11.02
2023-11-15T15:30:34.409Z,8.50
2023-11-15T15:33:22.893Z,9.10
2023-11-15T15:36:11.619Z,11.05
2023-11-15T15:39:00.642Z,9.48
2023-11-15T15:41:47.313Z,9.52
2023-11-15T15:44:35.849Z,6.63
2023-11-15T15:47:23.421Z,9.55
2023-11-15T15:50:14.531Z,7.95
2023-11-15T15:53:01.289Z,7.95
2023-11-15T15:55:48.668Z,7.78
2023-11-15T16:01:37.015Z,9.13
2023-11-15T16:04:23.771Z,5.00
2023-11-15T16:07:11.923Z,5.63
2023-11-15T16:10:02.742Z,8.13
2023-11-15T16:12:50.892Z,7.70
2023-11-15T16:15:40.643Z,5.78
2023-11-15T16:18:27.306Z,8.55
2023-11-15T16:21:16.224Z,5.60
2023-11-15T16:24:05.172Z,5.68
2023-11-15T16:26:51.596Z,4.40
2023-11-15T16:29:41.214Z,6.22
2023-11-15T16:32:30.515Z,7.17
2023-11-15T16:35:17.906Z,9.43
2023-11-15T16:38:06.967Z,4.43
2023-11-15T16:40:56.679Z,5.50
2023-11-15T16:43:44.265Z,7.13
2023-11-15T16:46:17.657Z,6.97
2023-11-15T16:48:45.878Z,5.22
2023-11-15T16:51:14.018Z,5.95
2023-11-15T16:53:44.260Z,5.13
2023-11-15T16:56:13.816Z,4.78
2023-11-15T16:58:42.619Z,4.30
2023-11-15T17:01:13.200Z,6.40
2023-11-15T17:03:41.804Z,5.23
2023-11-15T17:06:10.954Z,4.38
2023-11-15T17:08:39.031Z,4.05
2023-11-15T17:11:07.345Z,5.20
2023-11-15T17:13:37.712Z,10.10
2023-11-15T17:16:08.500Z,8.00
2023-11-15T17:18:36.863Z,8.43
2023-11-15T17:21:06.279Z,6.50
2023-11-15T17:23:34.654Z,7.15
2023-11-15T17:26:04.808Z,4.63
2023-11-15T17:28:37.066Z,5.53
2023-11-15T17:31:28.473Z,7.25
2023-11-15T17:34:17.328Z,5.78
2023-11-15T17:37:04.221Z,7.32
2023-11-15T17:39:53.274Z,6.60
2023-11-15T17:42:41.242Z,7.20
2023-11-15T17:45:31.784Z,4.60
2023-11-15T17:48:18.505Z,6.80
2023-11-15T17:51:06.069Z,8.02
2023-11-15T17:53:54.090Z,9.00
2023-11-15T17:56:42.941Z,5.75
2023-11-15T17:59:29.790Z,8.25
2023-11-15T18:02:17.983Z,7.50
2023-11-15T18:05:04.684Z,7.27
2023-11-15T18:07:51.557Z,10.88
2023-11-15T18:10:38.705Z,9.05
2023-11-15T18:13:25.680Z,11.18
2023-11-15T18:16:12.326Z,8.15
2023-11-15T18:19:06.333Z,12.20
2023-11-15T18:21:53.600Z,9.50
2023-11-15T18:24:40.431Z,8.80
2023-11-15T18:27:29.435Z,7.13
2023-11-15T18:30:17.969Z,7.25
2023-11-15T18:33:05.054Z,7.95
2023-11-15T18:35:53.409Z,8.00
2023-11-15T18:38:40.692Z,10.98
2023-11-15T18:41:27.441Z,13.32
2023-11-15T18:44:16.920Z,10.20
2023-11-15T18:47:03.900Z,9.98
2023-11-15T18:49:50.679Z,9.25
2023-11-15T18:52:42.275Z,5.93
2023-11-15T18:55:29.004Z,8.37
2023-11-15T18:58:16.047Z,10.48
2023-11-15T19:01:13.283Z,11.88
2023-11-15T19:04:02.337Z,10.02
2023-11-15T19:06:50.743Z,8.38
2023-11-15T19:09:39.374Z,11.75
2023-11-15T19:12:27.036Z,10.35
2023-11-15T19:15:13.577Z,8.20
2023-11-15T19:18:01.478Z,8.13
2023-11-15T19:20:53.764Z,10.05
2023-11-15T19:23:42.684Z,12.25
2023-11-15T19:26:32.086Z,8.48
2023-11-15T19:29:00.216Z,10.87
2023-11-15T19:31:28.675Z,6.90
2023-11-15T19:33:55.897Z,9.73
2023-11-15T19:36:27.149Z,11.32
2023-11-15T19:38:57.856Z,11.45
2023-11-15T19:41:26.193Z,9.90
2023-11-15T19:44:01.335Z,8.10
2023-11-15T19:46:47.964Z,9.00
2023-11-15T19:49:35.015Z,9.23
2023-11-15T19:52:23.195Z,11.33
2023-11-15T19:55:13.057Z,10.50
2023-11-15T19:57:59.829Z,10.63
2023-11-15T20:00:48.465Z,8.37
2023-11-15T20:03:37.792Z,6.65
2023-11-15T20:06:24.964Z,10.83
2023-11-15T20:09:19.455Z,11.10
2023-11-15T20:12:06.542Z,9.20
2023-11-15T20:14:53.621Z,9.07
2023-11-15T20:17:41.895Z,8.13
2023-11-15T20:20:11.676Z,11.48
2023-11-15T20:22:48.399Z,8.32
2023-11-15T20:25:21.112Z,8.30
2023-11-15T20:27:49.229Z,7.18
2023-11-15T20:30:19.244Z,11.50
2023-11-15T20:32:48.998Z,7.75
2023-11-15T20:35:18.453Z,13.75
2023-11-15T20:37:47.049Z,12.60
2023-11-15T20:40:18.880Z,12.18
2023-11-15T20:42:48.690Z,12.38
2023-11-15T20:45:17.391Z,10.67
2023-11-15T20:47:46.272Z,8.98
2023-11-15T20:50:18.270Z,13.30
2023-11-15T20:52:47.261Z,9.53
2023-11-15T20:55:38.539Z,9.10
2023-11-15T20:58:25.252Z,8.10
2023-11-15T21:01:11.956Z,11.83
2023-11-15T21:03:58.574Z,13.23
2023-11-15T21:06:47.272Z,8.60
2023-11-15T21:09:36.285Z,8.18
2023-11-15T21:12:22.960Z,8.55
2023-11-15T21:15:11.532Z,11.02
2023-11-15T21:17:58.414Z,11.23
2023-11-15T21:20:45.393Z,10.77
2023-11-15T21:23:35.914Z,8.75
2023-11-15T21:26:22.688Z,8.45
2023-11-15T21:29:11.460Z,8.15
2023-11-15T21:32:02.607Z,12.10
2023-11-15T21:34:49.494Z,12.75
2023-11-15T21:37:43.340Z,10.73
2023-11-15T21:40:31.688Z,9.77
2023-11-15T21:43:19.754Z,8.35
2023-11-15T21:46:06.970Z,11.10
2023-11-15T21:48:55.515Z,9.15
2023-11-15T21:51:24.202Z,11.07
2023-11-15T21:53:54.587Z,8.73
2023-11-15T21:56:24.794Z,11.23
2023-11-15T21:58:55.916Z,8.98
2023-11-15T22:01:26.356Z,9.00
2023-11-15T22:04:13.459Z,11.53
2023-11-15T22:07:04.704Z,11.45
2023-11-15T22:09:53.211Z,11.93
2023-11-15T22:12:41.253Z,14.25
2023-11-15T22:15:29.277Z,10.63
2023-11-15T22:18:18.410Z,9.83
2023-11-15T22:21:08.602Z,12.13
2023-11-15T22:23:55.382Z,9.82
2023-11-15T22:26:42.172Z,10.93
2023-11-15T22:29:30.667Z,9.93
2023-11-15T22:32:19.057Z,14.52
2023-11-15T22:35:08.668Z,12.18
2023-11-15T22:37:57.661Z,8.93
2023-11-15T22:40:44.394Z,10.75
2023-11-15T22:43:31.205Z,11.77
2023-11-15T22:46:45.408Z,8.75
2023-11-15T22:49:34.305Z,14.13
2023-11-15T22:52:20.827Z,10.45
2023-11-15T22:55:08.672Z,11.37
2023-11-15T22:57:55.033Z,14.00
2023-11-15T23:00:42.439Z,10.68
2023-11-15T23:03:31.572Z,11.67
2023-11-15T23:06:20.619Z,8.15
2023-11-15T23:09:07.391Z,11.80
2023-11-15T23:11:54.406Z,12.95
2023-11-15T23:14:44.574Z,10.20
2023-11-15T23:17:34.580Z,9.25
2023-11-15T23:20:25.634Z,13.43
2023-11-15T23:23:16.101Z,10.80
2023-11-15T23:26:02.561Z,13.02
2023-11-15T23:28:53.308Z,9.57
2023-11-15T23:31:40.784Z,14.35
2023-11-15T23:34:27.989Z,11.70
2023-11-15T23:37:16.599Z,11.35
2023-11-15T23:40:04.329Z,11.38
2023-11-15T23:42:53.398Z,11.98
2023-11-15T23:45:44.809Z,13.60
2023-11-15T23:48:34.766Z,13.35
2023-11-15T23:51:25.064Z,12.75
2023-11-15T23:54:12.998Z,17.50
2023-11-15T23:57:02.314Z,10.50
2023-11-15T23:59:49.011Z,10.73
